Time;durP1;ratioP1;P1;durP2;ratioP2;P2;SDS_P1;SDS_P2;PMS_P1;PMS_P2;Temp;Humidity;BMP_temperature;BMP_pressure;BME280_temperature;BME280_humidity;BME280_pressure;Samples;Min_cycle;Max_cycle;Signal;HPM_P1;HPM_P2
2022/07/30 00:01:06;;;;;;;4.25;0.63;;;16.30;99.90;;;;;;5015569;28;20030;-81
2022/07/30 00:03:33;;;;;;;2.42;0.88;;;16.20;99.90;;;;;;5000164;28;20030;-83
2022/07/30 00:05:58;;;;;;;3.40;0.85;;;16.20;99.90;;;;;;5004685;28;20041;-86
2022/07/30 00:08:24;;;;;;;3.17;0.80;;;16.10;99.90;;;;;;5014853;28;20516;-79
2022/07/30 00:10:50;;;;;;;2.42;0.90;;;16.00;99.90;;;;;;4993966;28;20026;-83
2022/07/30 00:13:17;;;;;;;1.45;0.60;;;16.00;99.90;;;;;;5004205;28;20394;-78
2022/07/30 00:15:43;;;;;;;1.95;0.85;;;15.80;99.90;;;;;;5016107;28;20030;-79
2022/07/30 00:18:09;;;;;;;2.97;0.70;;;15.80;99.90;;;;;;5000409;28;20042;-85
2022/07/30 00:20:34;;;;;;;3.75;1.05;;;15.80;99.90;;;;;;4985339;28;20112;-78
2022/07/30 00:23:04;;;;;;;4.53;1.33;;;15.90;99.90;;;;;;5015571;28;20030;-79
2022/07/30 00:25:30;;;;;;;2.75;0.85;;;15.80;99.90;;;;;;4995809;28;20112;-78
2022/07/30 00:27:56;;;;;;;2.97;0.70;;;15.70;99.90;;;;;;4975161;28;20473;-82
2022/07/30 00:30:22;;;;;;;5.25;1.02;;;15.70;99.90;;;;;;5016454;28;20041;-80
2022/07/30 00:32:48;;;;;;;3.60;1.00;;;15.70;99.90;;;;;;5022138;28;20033;-78
2022/07/30 00:35:14;;;;;;;2.10;0.80;;;15.70;99.90;;;;;;5020785;28;20025;-79
2022/07/30 00:37:40;;;;;;;2.13;0.80;;;15.80;99.90;;;;;;5003472;28;20029;-84
2022/07/30 00:40:07;;;;;;;3.35;0.88;;;15.70;99.90;;;;;;5008035;28;20116;-83
2022/07/30 00:42:41;;;;;;;4.25;1.30;;;15.70;99.90;;;;;;5008006;28;20032;-78
2022/07/30 00:45:08;;;;;;;4.82;1.27;;;15.80;99.90;;;;;;5001582;28;20045;-79
2022/07/30 00:47:35;;;;;;;2.53;1.10;;;15.70;99.90;;;;;;5014405;28;20021;-79
2022/07/30 00:50:03;;;;;;;4.40;1.65;;;15.70;99.90;;;;;;4993858;28;20030;-81
2022/07/30 00:52:30;;;;;;;3.13;1.80;;;15.80;99.90;;;;;;4978604;28;20478;-80
2022/07/30 00:54:57;;;;;;;3.97;1.70;;;15.80;99.90;;;;;;5014778;28;20030;-79
2022/07/30 00:57:22;;;;;;;2.22;1.25;;;15.80;99.90;;;;;;4996840;28;20291;-79
2022/07/30 00:59:48;;;;;;;3.55;1.33;;;15.70;99.90;;;;;;5002105;28;20056;-81
2022/07/30 01:02:14;;;;;;;1.95;1.10;;;15.80;99.90;;;;;;4996109;28;20115;-82
2022/07/30 01:04:40;;;;;;;3.75;1.85;;;15.80;99.90;;;;;;5006867;28;20486;-82
2022/07/30 01:07:06;;;;;;;3.38;1.60;;;15.70;99.90;;;;;;4986920;28;20029;-82
2022/07/30 01:09:31;;;;;;;5.18;3.20;;;15.70;99.90;;;;;;4996847;28;20546;-80
2022/07/30 01:11:57;;;;;;;5.55;3.38;;;15.50;99.90;;;;;;4976569;28;20045;-81
2022/07/30 01:14:24;;;;;;;6.03;2.78;;;15.60;99.90;;;;;;4992096;28;20045;-82
2022/07/30 01:16:50;;;;;;;4.43;2.70;;;15.60;99.90;;;;;;5013107;28;20528;-79
2022/07/30 01:22:41;;;;;;;5.63;3.35;;;15.60;99.90;;;;;;4985929;28;20026;-78
2022/07/30 01:25:30;;;;;;;11.15;5.75;;;15.50;99.90;;;;;;4914179;29;20040;-83
2022/07/30 01:28:06;;;;;;;9.77;6.03;;;15.50;99.90;;;;;;4897133;29;20126;-79
2022/07/30 01:30:40;;;;;;;8.90;6.40;;;15.60;99.90;;;;;;4903784;29;20040;-82
2022/07/30 01:33:10;;;;;;;13.43;7.03;;;15.60;99.90;;;;;;4919281;29;20489;-77
2022/07/30 01:35:36;;;;;;;12.30;7.78;;;15.70;99.90;;;;;;4903306;29;20603;-78
2022/07/30 01:38:04;;;;;;;12.30;8.30;;;15.60;99.90;;;;;;4901554;29;20036;-84
2022/07/30 01:40:31;;;;;;;10.70;8.50;;;15.70;99.90;;;;;;4902258;29;20024;-81
2022/07/30 01:43:00;;;;;;;14.63;9.90;;;15.70;99.90;;;;;;4922909;29;20036;-81
2022/07/30 01:45:28;;;;;;;11.10;8.93;;;15.70;99.90;;;;;;4895591;29;20044;-80
2022/07/30 01:47:57;;;;;;;12.65;8.13;;;15.70;99.90;;;;;;4899529;29;20024;-83
2022/07/30 01:50:24;;;;;;;16.55;11.10;;;15.80;99.90;;;;;;4901075;29;20505;-84
2022/07/30 01:52:52;;;;;;;15.15;9.93;;;15.80;99.90;;;;;;4913524;29;20056;-85
2022/07/30 01:55:25;;;;;;;14.65;10.20;;;15.90;99.90;;;;;;4877782;29;20047;-81
2022/07/30 01:57:54;;;;;;;14.43;9.35;;;15.90;99.90;;;;;;4900856;29;20024;-84
2022/07/30 02:00:21;;;;;;;17.80;11.30;;;15.90;99.90;;;;;;4895459;29;20039;-83
2022/07/30 02:02:48;;;;;;;12.88;9.27;;;15.90;99.90;;;;;;4961825;28;20034;-79
2022/07/30 02:05:14;;;;;;;12.40;9.82;;;15.90;99.90;;;;;;4971776;28;20052;-81
2022/07/30 02:08:23;;;;;;;13.68;10.75;;;15.90;99.90;;;;;;4982549;28;20104;-83
2022/07/30 02:11:06;;;;;;;15.18;9.95;;;15.90;99.90;;;;;;4888948;29;20035;-85
2022/07/30 02:13:34;;;;;;;14.75;10.70;;;15.90;99.90;;;;;;4888617;29;20528;-81
2022/07/30 02:16:13;;;;;;;13.50;9.75;;;15.90;99.90;;;;;;4895707;29;20508;-84
2022/07/30 02:18:42;;;;;;;16.85;11.07;;;15.90;99.90;;;;;;4879098;29;20039;-85
2022/07/30 02:21:09;;;;;;;15.18;10.57;;;15.90;99.90;;;;;;4895852;29;20067;-84
2022/07/30 02:23:39;;;;;;;13.30;10.10;;;15.90;99.90;;;;;;4900387;29;20092;-78
2022/07/30 02:26:08;;;;;;;17.48;11.50;;;15.90;99.90;;;;;;4918451;29;20090;-80
2022/07/30 02:28:40;;;;;;;20.40;11.98;;;15.90;99.90;;;;;;4896406;29;20036;-83
2022/07/30 02:31:08;;;;;;;21.90;14.02;;;15.90;99.90;;;;;;4896482;29;20052;-84
2022/07/30 02:33:39;;;;;;;20.25;14.02;;;15.80;99.90;;;;;;4905106;29;20182;-81
2022/07/30 02:36:07;;;;;;;22.83;14.88;;;15.90;99.90;;;;;;4905136;29;20055;-84
2022/07/30 02:38:35;;;;;;;20.27;13.18;;;15.80;99.90;;;;;;4905564;29;20103;-80
2022/07/30 02:41:02;;;;;;;18.55;12.40;;;15.90;99.90;;;;;;4880719;29;20092;-79
2022/07/30 02:43:30;;;;;;;18.55;12.10;;;15.90;99.90;;;;;;4900946;29;20036;-85
2022/07/30 02:45:59;;;;;;;18.20;10.88;;;15.90;99.90;;;;;;4971111;28;20093;-82
2022/07/30 02:48:38;;;;;;;17.90;10.85;;;15.90;99.90;;;;;;5005297;28;20026;-82
2022/07/30 02:51:07;;;;;;;18.10;11.20;;;15.90;99.90;;;;;;4995679;28;20112;-80
2022/07/30 02:53:34;;;;;;;17.05;11.15;;;15.90;99.90;;;;;;5015223;28;20026;-82
2022/07/30 02:56:01;;;;;;;19.77;11.38;;;16.00;99.90;;;;;;4978022;28;20032;-83
2022/07/30 02:58:28;;;;;;;13.77;9.88;;;16.00;99.90;;;;;;4971396;28;20029;-78
2022/07/30 03:00:55;;;;;;;17.23;11.18;;;16.00;99.90;;;;;;4993620;28;20026;-84
2022/07/30 03:03:27;;;;;;;11.80;8.82;;;16.00;99.90;;;;;;4992389;28;20034;-85
2022/07/30 03:05:56;;;;;;;16.55;11.20;;;16.00;99.90;;;;;;4976945;28;20458;-79
2022/07/30 03:08:23;;;;;;;17.77;10.63;;;16.00;99.90;;;;;;5000437;28;20049;-80
2022/07/30 03:10:51;;;;;;;12.85;8.35;;;16.10;99.90;;;;;;4993287;28;20029;-82
2022/07/30 03:13:20;;;;;;;17.83;11.00;;;16.10;99.90;;;;;;4976286;28;20036;-83
2022/07/30 03:15:48;;;;;;;15.35;10.60;;;16.00;99.90;;;;;;4977019;28;20038;-79
2022/07/30 03:18:16;;;;;;;15.18;11.38;;;16.10;99.90;;;;;;5006594;28;20018;-79
2022/07/30 03:20:46;;;;;;;16.15;10.20;;;16.00;99.90;;;;;;5003137;28;20026;-79
2022/07/30 03:23:18;;;;;;;14.40;10.20;;;15.90;99.90;;;;;;4990988;28;20030;-80
2022/07/30 03:25:49;;;;;;;13.00;10.67;;;15.90;99.90;;;;;;4993366;28;20048;-79
2022/07/30 03:28:16;;;;;;;11.90;9.75;;;15.90;99.90;;;;;;4989695;28;20068;-80
2022/07/30 03:30:42;;;;;;;11.95;8.38;;;15.90;99.90;;;;;;4990842;28;20193;-81
2022/07/30 03:33:10;;;;;;;15.02;11.27;;;15.90;99.90;;;;;;4980044;28;20113;-80
2022/07/30 03:35:37;;;;;;;14.60;10.95;;;15.80;99.90;;;;;;4984139;28;20075;-79
2022/07/30 03:38:04;;;;;;;14.77;12.05;;;15.80;99.90;;;;;;4998174;28;20055;-81
2022/07/30 03:40:31;;;;;;;17.52;13.52;;;15.80;99.90;;;;;;5002902;28;20040;-82
2022/07/30 03:42:57;;;;;;;16.70;13.10;;;15.70;99.90;;;;;;5002031;28;20029;-81
2022/07/30 03:45:24;;;;;;;17.60;13.30;;;15.60;99.90;;;;;;4999352;28;20083;-81
2022/07/30 03:47:54;;;;;;;14.95;12.50;;;15.60;99.90;;;;;;4994128;28;20024;-82
2022/07/30 03:50:22;;;;;;;16.50;13.70;;;15.60;99.90;;;;;;4980221;28;20501;-82
2022/07/30 03:52:49;;;;;;;16.60;13.13;;;15.60;99.90;;;;;;4977322;28;20113;-80
2022/07/30 03:55:16;;;;;;;15.38;12.43;;;15.50;99.90;;;;;;4991080;28;20025;-82
2022/07/30 03:57:45;;;;;;;21.50;15.00;;;15.60;99.90;;;;;;5016041;28;20038;-84
2022/07/30 04:00:15;;;;;;;23.85;16.13;;;15.60;99.90;;;;;;4979540;28;20025;-81
2022/07/30 04:02:46;;;;;;;23.00;14.57;;;15.60;99.90;;;;;;5000718;28;20397;-80
2022/07/30 04:05:31;;;;;;;18.50;13.30;;;15.70;99.90;;;;;;4998100;28;20038;-84
2022/07/30 04:08:00;;;;;;;21.27;14.63;;;15.70;99.90;;;;;;4981276;28;20053;-80
2022/07/30 04:10:27;;;;;;;20.30;15.77;;;15.60;99.90;;;;;;4999156;28;20497;-82
2022/07/30 04:12:59;;;;;;;19.65;15.20;;;15.60;99.90;;;;;;5017530;28;20033;-80
2022/07/30 04:15:25;;;;;;;19.35;13.68;;;15.60;99.90;;;;;;5006088;28;20477;-85
2022/07/30 04:17:57;;;;;;;18.45;13.77;;;15.60;99.90;;;;;;4978015;28;20025;-79
2022/07/30 04:20:33;;;;;;;20.92;14.98;;;15.50;99.90;;;;;;5008038;28;20030;-79
2022/07/30 04:22:59;;;;;;;18.13;14.20;;;15.50;99.90;;;;;;4971875;28;20546;-81
2022/07/30 04:25:26;;;;;;;18.30;13.85;;;15.50;99.90;;;;;;4976954;28;20037;-79
2022/07/30 04:27:53;;;;;;;16.52;13.48;;;15.60;99.90;;;;;;4976667;28;20510;-81
2022/07/30 04:30:19;;;;;;;14.35;12.30;;;15.60;99.90;;;;;;4973763;28;20474;-81
2022/07/30 04:32:45;;;;;;;14.20;11.73;;;15.60;99.90;;;;;;4986010;28;20029;-81
2022/07/30 04:35:30;;;;;;;13.18;10.18;;;15.60;99.90;;;;;;4999067;28;20037;-79
2022/07/30 04:38:17;;;;;;;14.35;10.43;;;15.60;99.90;;;;;;4999128;28;20389;-79
2022/07/30 04:40:47;;;;;;;14.27;10.40;;;15.70;99.90;;;;;;4989852;28;20459;-79
2022/07/30 04:43:14;;;;;;;11.30;9.57;;;15.70;99.90;;;;;;5010822;28;20029;-79
2022/07/30 04:45:40;;;;;;;10.65;8.02;;;15.80;99.90;;;;;;4997764;28;20042;-83
2022/07/30 04:48:07;;;;;;;7.03;5.88;;;15.80;99.90;;;;;;4996195;28;20018;-83
2022/07/30 04:50:45;;;;;;;8.75;6.45;;;15.90;99.90;;;;;;4996537;28;20040;-83
2022/07/30 04:53:14;;;;;;;5.82;5.10;;;15.80;99.90;;;;;;4977495;28;20383;-82
2022/07/30 04:55:48;;;;;;;8.27;6.75;;;15.90;99.90;;;;;;4973182;28;20485;-83
2022/07/30 04:58:18;;;;;;;8.05;6.70;;;15.80;99.90;;;;;;5000712;28;20027;-81
2022/07/30 05:00:45;;;;;;;7.10;5.38;;;15.80;99.90;;;;;;5003449;28;20057;-83
2022/07/30 05:03:16;;;;;;;9.93;7.60;;;15.90;99.90;;;;;;4982227;28;20022;-81
2022/07/30 05:05:48;;;;;;;9.40;8.20;;;16.00;99.90;;;;;;4994975;28;20037;-78
2022/07/30 05:08:14;;;;;;;8.60;7.65;;;16.00;99.90;;;;;;4972919;28;20502;-82
2022/07/30 05:10:40;;;;;;;8.20;7.13;;;16.00;99.90;;;;;;4967574;28;20040;-82
2022/07/30 05:13:12;;;;;;;9.00;6.47;;;16.00;99.90;;;;;;4988110;28;20034;-81
2022/07/30 05:15:39;;;;;;;10.18;6.57;;;16.10;99.90;;;;;;4992474;28;20108;-80
2022/07/30 05:18:07;;;;;;;9.10;7.28;;;16.10;99.90;;;;;;4982050;28;20095;-83
2022/07/30 05:20:36;;;;;;;10.03;8.07;;;16.10;99.90;;;;;;4999268;28;20022;-81
2022/07/30 05:23:34;;;;;;;9.30;7.38;;;16.10;99.90;;;;;;4993770;28;20640;-83
2022/07/30 05:26:20;;;;;;;9.75;6.53;;;16.10;99.90;;;;;;5006822;28;20449;-82
2022/07/30 05:28:48;;;;;;;7.95;6.13;;;16.20;99.90;;;;;;4973252;28;20540;-78
2022/07/30 05:31:16;;;;;;;9.05;6.07;;;16.20;99.90;;;;;;4997444;28;20021;-83
2022/07/30 05:33:50;;;;;;;10.65;7.75;;;16.30;99.90;;;;;;4997074;28;20103;-82
2022/07/30 05:36:18;;;;;;;9.15;7.13;;;16.20;99.90;;;;;;4982539;28;20157;-82
2022/07/30 05:38:44;;;;;;;10.15;8.80;;;16.30;99.90;;;;;;5001691;28;20041;-80
2022/07/30 05:41:48;;;;;;;10.07;6.65;;;16.30;99.90;;;;;;4929253;29;20043;-81
2022/07/30 05:44:37;;;;;;;7.57;6.22;;;16.30;99.90;;;;;;4929546;29;20494;-82
2022/07/30 05:47:02;;;;;;;5.80;4.90;;;16.40;99.90;;;;;;4929550;29;20043;-81
2022/07/30 05:49:28;;;;;;;8.85;5.47;;;16.50;99.90;;;;;;4914170;29;20072;-81
2022/07/30 05:52:02;;;;;;;7.05;5.72;;;16.50;99.90;;;;;;4911300;29;20051;-81
2022/07/30 05:54:28;;;;;;;6.38;4.53;;;16.60;99.90;;;;;;4913540;29;20515;-82
2022/07/30 05:57:12;;;;;;;8.75;6.10;;;16.80;99.90;;;;;;4928953;29;20107;-80
2022/07/30 05:59:39;;;;;;;9.57;4.97;;;16.80;99.90;;;;;;4913912;29;20285;-84
2022/07/30 06:02:08;;;;;;;7.78;4.65;;;17.00;99.90;;;;;;4929682;29;20103;-84
2022/07/30 06:04:46;;;;;;;5.65;3.70;;;17.00;99.90;;;;;;4929610;29;20152;-80
2022/07/30 06:07:12;;;;;;;5.93;4.13;;;17.10;99.90;;;;;;4910785;29;20132;-85
2022/07/30 06:09:39;;;;;;;6.43;4.97;;;17.30;99.90;;;;;;4908648;29;20051;-83
2022/07/30 06:12:06;;;;;;;6.28;3.65;;;17.30;99.90;;;;;;4937764;28;20133;-84
2022/07/30 06:14:32;;;;;;;7.93;3.95;;;17.40;99.90;;;;;;4983777;28;20456;-80
2022/07/30 06:16:58;;;;;;;5.50;4.70;;;17.40;99.90;;;;;;4981973;28;20116;-85
2022/07/30 06:19:26;;;;;;;7.88;4.47;;;17.60;99.90;;;;;;4999239;28;20026;-84
2022/07/30 06:21:52;;;;;;;9.95;3.67;;;17.50;99.90;;;;;;4996766;28;20430;-83
2022/07/30 06:24:20;;;;;;;6.78;4.03;;;17.80;99.90;;;;;;4987447;28;20037;-83
2022/07/30 06:27:09;;;;;;;4.55;3.67;;;17.50;99.90;;;;;;5015865;28;20552;-80
2022/07/30 06:29:35;;;;;;;10.98;5.32;;;17.80;99.90;;;;;;5000112;28;20037;-80
2022/07/30 06:32:01;;;;;;;7.15;5.22;;;17.90;99.90;;;;;;4999270;28;20459;-84
2022/07/30 06:34:26;;;;;;;6.53;4.30;;;17.90;99.90;;;;;;5004169;28;20056;-83
2022/07/30 06:36:52;;;;;;;6.90;3.28;;;18.10;99.90;;;;;;4994090;28;20033;-80
2022/07/30 06:39:19;;;;;;;8.15;3.63;;;18.30;99.90;;;;;;4972015;28;20049;-80
2022/07/30 06:42:11;;;;;;;8.52;3.67;;;18.30;99.90;;;;;;4993134;28;20049;-82
2022/07/30 06:44:56;;;;;;;6.45;3.30;;;18.50;99.90;;;;;;4999732;28;20057;-80
2022/07/30 06:47:27;;;;;;;5.47;2.78;;;18.80;99.90;;;;;;4976711;28;20452;-84
2022/07/30 06:49:55;;;;;;;5.22;3.60;;;19.20;99.90;;;;;;4974004;28;20030;-85
2022/07/30 06:52:21;;;;;;;7.40;4.50;;;19.10;99.90;;;;;;5014950;28;20097;-82
2022/07/30 06:54:50;;;;;;;6.53;3.97;;;18.70;99.90;;;;;;5002552;28;20040;-81
2022/07/30 06:57:27;;;;;;;6.15;2.58;;;18.40;99.90;;;;;;5002176;28;20034;-81
2022/07/30 06:59:53;;;;;;;5.63;3.30;;;18.00;99.90;;;;;;4990175;28;20480;-82
2022/07/30 07:02:41;;;;;;;6.88;2.90;;;18.30;99.90;;;;;;5016330;28;20180;-84
2022/07/30 07:05:10;;;;;;;5.82;1.70;;;18.70;99.90;;;;;;4977534;28;20033;-82
2022/07/30 07:07:39;;;;;;;5.78;1.80;;;18.80;99.90;;;;;;5004290;28;20049;-83
2022/07/30 07:10:05;;;;;;;4.72;1.40;;;19.10;99.90;;;;;;4976096;28;20026;-80
2022/07/30 07:12:48;;;;;;;4.38;2.50;;;19.50;99.90;;;;;;4984562;28;20026;-82
2022/07/30 07:15:17;;;;;;;5.57;2.23;;;19.30;99.90;;;;;;4980800;28;20401;-81
2022/07/30 07:17:43;;;;;;;6.63;2.58;;;19.10;99.90;;;;;;4998785;28;20036;-82
2022/07/30 07:20:34;;;;;;;5.40;2.53;;;18.80;99.90;;;;;;4987395;28;20040;-81
2022/07/30 07:23:03;;;;;;;2.75;1.52;;;18.50;99.90;;;;;;4975371;28;20038;-81
2022/07/30 07:25:30;;;;;;;3.22;0.95;;;18.90;99.90;;;;;;4997886;28;20077;-84
2022/07/30 07:27:55;;;;;;;4.22;0.93;;;19.30;99.90;;;;;;5008131;28;20029;-87
2022/07/30 07:30:21;;;;;;;3.72;1.92;;;19.50;99.90;;;;;;4999828;28;20076;-84
2022/07/30 07:32:47;;;;;;;4.18;1.35;;;19.50;99.90;;;;;;4995518;28;20056;-86
2022/07/30 07:35:14;;;;;;;3.20;1.23;;;19.70;99.90;;;;;;4995820;28;20172;-86
2022/07/30 07:37:43;;;;;;;6.15;1.27;;;19.70;99.90;;;;;;4995724;28;20108;-87
2022/07/30 07:40:15;;;;;;;3.50;1.05;;;19.70;99.90;;;;;;4999825;28;20030;-86
2022/07/30 07:42:41;;;;;;;3.70;0.95;;;19.60;99.90;;;;;;4980267;28;20108;-85
2022/07/30 07:45:07;;;;;;;3.08;0.70;;;19.80;99.90;;;;;;4992236;28;20446;-84
2022/07/30 07:47:48;;;;;;;2.05;0.80;;;20.10;99.90;;;;;;4992759;28;20092;-84
2022/07/30 07:50:23;;;;;;;6.70;1.52;;;19.90;99.90;;;;;;4975289;28;20613;-84
2022/07/30 07:52:50;;;;;;;3.17;0.80;;;19.70;99.90;;;;;;4978908;28;20096;-84
2022/07/30 07:55:16;;;;;;;5.35;0.90;;;19.70;99.90;;;;;;4983147;28;20026;-87
2022/07/30 07:57:44;;;;;;;2.08;0.60;;;20.10;99.90;;;;;;5012596;28;20589;-86
2022/07/30 08:00:16;;;;;;;2.42;0.70;;;20.30;99.90;;;;;;4993945;28;20525;-87
2022/07/30 08:02:46;;;;;;;3.72;0.80;;;20.30;99.90;;;;;;5001293;28;20557;-89
2022/07/30 08:05:13;;;;;;;4.93;1.15;;;20.40;99.90;;;;;;5003922;28;20152;-83
2022/07/30 08:08:11;;;;;;;2.45;0.93;;;20.60;99.90;;;;;;4944239;29;20448;-84
2022/07/30 08:11:04;;;;;;;4.55;0.57;;;20.30;99.90;;;;;;4927682;29;20042;-85
2022/07/30 08:13:48;;;;;;;4.15;0.88;;;20.10;99.90;;;;;;4942436;29;20548;-87
2022/07/30 08:16:52;;;;;;;3.63;0.82;;;20.20;99.90;;;;;;4896639;29;20088;-86
2022/07/30 08:19:48;;;;;;;3.70;0.75;;;20.60;99.90;;;;;;4906365;29;20127;-83
2022/07/30 08:22:20;;;;;;;3.58;0.60;;;20.70;99.90;;;;;;4898917;29;20535;-84
2022/07/30 08:24:45;;;;;;;1.92;0.60;;;20.80;99.90;;;;;;4896511;29;20044;-86
2022/07/30 08:27:11;;;;;;;3.17;0.70;;;20.90;99.90;;;;;;4894905;29;20159;-86
2022/07/30 08:29:36;;;;;;;3.85;0.50;;;21.00;99.90;;;;;;4897532;29;20072;-83
2022/07/30 08:32:02;;;;;;;3.38;0.63;;;20.90;99.90;;;;;;4879645;29;20343;-87
2022/07/30 08:34:28;;;;;;;3.35;0.60;;;21.00;99.90;;;;;;4895988;29;20032;-85
2022/07/30 08:36:55;;;;;;;2.28;0.57;;;21.20;99.90;;;;;;4877099;29;20068;-85
2022/07/30 08:39:21;;;;;;;2.88;0.60;;;21.10;99.90;;;;;;4879429;29;20099;-86
2022/07/30 08:41:47;;;;;;;4.13;0.65;;;21.10;99.90;;;;;;4892819;29;20044;-85
2022/07/30 08:44:17;;;;;;;2.13;0.50;;;21.20;99.90;;;;;;4921970;29;20503;-83
2022/07/30 08:46:45;;;;;;;2.13;0.45;;;21.30;99.90;;;;;;4940276;28;20031;-82
2022/07/30 08:49:31;;;;;;;1.92;0.40;;;21.80;99.90;;;;;;4996772;28;20053;-86
2022/07/30 08:51:57;;;;;;;3.60;0.68;;;21.90;99.90;;;;;;4984970;28;20477;-85
2022/07/30 08:54:52;;;;;;;3.25;0.60;;;21.60;99.90;;;;;;4994554;28;20057;-87
2022/07/30 08:57:18;;;;;;;2.88;0.50;;;21.20;99.90;;;;;;4977524;28;20030;-87
2022/07/30 08:59:47;;;;;;;3.00;0.50;;;21.30;99.90;;;;;;4994596;28;20100;-84
2022/07/30 09:02:12;;;;;;;4.55;0.88;;;21.70;99.90;;;;;;4991223;28;20121;-87
2022/07/30 09:04:54;;;;;;;2.63;0.60;;;21.90;99.90;;;;;;5004815;28;20041;-84
2022/07/30 09:07:20;;;;;;;2.20;0.50;;;22.00;99.90;;;;;;4997830;28;20081;-83
2022/07/30 09:09:45;;;;;;;1.10;0.30;;;21.90;99.90;;;;;;4975297;28;20065;-89
2022/07/30 09:12:31;;;;;;;1.77;0.40;;;22.30;99.90;;;;;;5001668;28;20085;-89
2022/07/30 09:15:24;;;;;;;0.98;0.40;;;22.50;99.90;;;;;;4976422;28;20076;-87
2022/07/30 09:17:53;;;;;;;2.65;0.50;;;22.50;99.90;;;;;;4993322;28;20464;-88
2022/07/30 09:20:22;;;;;;;4.43;0.50;;;21.80;99.90;;;;;;4972666;28;20033;-90
2022/07/30 09:22:53;;;;;;;3.63;0.30;;;22.40;99.90;;;;;;4979362;28;20477;-88
2022/07/30 09:25:39;;;;;;;1.80;0.47;;;23.30;99.90;;;;;;5005257;28;20112;-88
2022/07/30 09:28:29;;;;;;;1.90;0.40;;;22.60;99.90;;;;;;5003756;28;20474;-86
2022/07/30 09:31:15;;;;;;;2.65;0.45;;;22.50;99.90;;;;;;5013230;28;20501;-87
2022/07/30 09:33:59;;;;;;;1.67;0.40;;;22.20;99.90;;;;;;5009547;28;20068;-88
2022/07/30 09:37:15;;;;;;;2.67;0.30;;;22.50;99.90;;;;;;5002641;28;20045;-84
2022/07/30 09:40:14;;;;;;;2.47;0.40;;;22.20;99.90;;;;;;5007716;28;20028;-86
2022/07/30 09:43:11;;;;;;;1.75;0.40;;;22.80;99.90;;;;;;5011230;28;20083;-84
2022/07/30 09:45:54;;;;;;;2.58;0.40;;;22.60;99.90;;;;;;4978639;28;20093;-90
2022/07/30 09:48:27;;;;;;;1.70;0.30;;;23.10;99.90;;;;;;4997245;28;20070;-87
2022/07/30 09:50:54;;;;;;;3.22;0.50;;;23.10;99.90;;;;;;4989184;28;20363;-87
2022/07/30 09:53:21;;;;;;;1.58;0.40;;;23.00;99.90;;;;;;5007677;28;20096;-84
2022/07/30 09:55:48;;;;;;;2.60;0.40;;;23.10;99.90;;;;;;4980815;28;20057;-86
2022/07/30 09:58:14;;;;;;;1.08;0.35;;;22.90;99.90;;;;;;4979951;28;20029;-90
2022/07/30 10:00:41;;;;;;;2.28;0.40;;;22.60;99.90;;;;;;4993888;28;20137;-85
2022/07/30 10:03:22;;;;;;;3.22;0.30;;;22.60;99.90;;;;;;4964485;28;20093;-89
2022/07/30 10:06:34;;;;;;;2.15;0.40;;;22.80;99.90;;;;;;4915982;29;20067;-89
2022/07/30 10:09:09;;;;;;;0.60;0.20;;;22.40;99.90;;;;;;4925393;29;20051;-89
2022/07/30 10:11:36;;;;;;;1.70;0.47;;;22.80;99.90;;;;;;4896363;29;20396;-87
2022/07/30 10:14:02;;;;;;;4.00;0.73;;;23.10;99.90;;;;;;4897920;29;20481;-83
2022/07/30 10:16:29;;;;;;;2.70;0.60;;;22.80;99.90;;;;;;4915736;29;20131;-82
2022/07/30 10:18:59;;;;;;;2.90;0.57;;;23.20;99.90;;;;;;4922586;29;20031;-87
2022/07/30 10:21:45;;;;;;;1.65;0.50;;;23.10;99.90;;;;;;4912773;29;20060;-90
2022/07/30 10:24:30;;;;;;;2.08;0.60;;;22.70;99.90;;;;;;4930484;29;20476;-88
2022/07/30 10:27:15;;;;;;;1.88;0.45;;;23.10;99.90;;;;;;4914235;29;20411;-88
2022/07/30 10:30:02;;;;;;;3.35;0.40;;;22.90;99.90;;;;;;4915834;29;20498;-92
2022/07/30 10:32:30;;;;;;;2.85;0.68;;;23.00;99.90;;;;;;4898232;29;20096;-84
2022/07/30 10:34:59;;;;;;;1.65;0.40;;;23.10;99.90;;;;;;4912618;29;20040;-85
2022/07/30 10:37:27;;;;;;;3.35;0.50;;;23.40;99.90;;;;;;4919536;29;20058;-86
2022/07/30 10:40:03;;;;;;;2.72;0.50;;;23.50;99.90;;;;;;4926389;29;20032;-89
2022/07/30 10:42:55;;;;;;;1.60;0.50;;;23.70;99.90;;;;;;4943462;28;20039;-91
2022/07/30 10:45:57;;;;;;;1.75;0.40;;;23.40;99.90;;;;;;4970737;28;20042;-91
2022/07/30 10:48:26;;;;;;;1.77;0.40;;;23.40;99.90;;;;;;5009712;28;20017;-91
2022/07/30 10:50:55;;;;;;;2.58;0.50;;;23.50;99.90;;;;;;4993840;28;20092;-91
2022/07/30 10:53:38;;;;;;;2.00;0.30;;;23.10;99.90;;;;;;4993695;28;20073;-92
2022/07/30 10:56:19;;;;;;;2.63;0.47;;;23.70;99.90;;;;;;4996462;28;20074;-90
2022/07/30 10:59:05;;;;;;;1.40;0.32;;;23.50;99.90;;;;;;4988272;28;20078;-92
2022/07/30 11:01:46;;;;;;;1.58;0.40;;;23.70;99.90;;;;;;4995377;28;20413;-91
2022/07/30 11:04:27;;;;;;;2.28;0.40;;;23.90;99.90;;;;;;4993125;28;20080;-93
2022/07/30 11:07:28;;;;;;;1.85;0.30;;;24.30;99.90;;;;;;4975990;28;20459;-87
2022/07/30 11:10:00;;;;;;;1.73;0.40;;;24.40;99.90;;;;;;4980629;28;20125;-82
2022/07/30 11:12:41;;;;;;;1.65;0.20;;;24.10;99.90;;;;;;4992459;28;20038;-85
2022/07/30 11:15:08;;;;;;;1.42;0.30;;;24.10;99.90;;;;;;4998119;28;20474;-83
2022/07/30 11:17:59;;;;;;;2.45;0.40;;;23.80;99.90;;;;;;4977641;28;20501;-87
2022/07/30 11:20:30;;;;;;;1.85;0.30;;;23.90;99.90;;;;;;5015897;28;20381;-85
2022/07/30 11:23:24;;;;;;;1.45;0.40;;;24.70;99.90;;;;;;5000721;28;20034;-84
2022/07/30 11:25:52;;;;;;;1.90;0.30;;;24.00;99.90;;;;;;4987019;28;20653;-84
2022/07/30 11:28:43;;;;;;;1.55;0.40;;;24.20;99.90;;;;;;4994547;28;20024;-86
2022/07/30 11:31:44;;;;;;;1.85;0.50;;;23.80;99.90;;;;;;5018347;28;20026;-85
2022/07/30 11:34:19;;;;;;;1.10;0.20;;;24.40;99.90;;;;;;4923805;29;20038;-86
2022/07/30 11:37:07;;;;;;;1.23;0.25;;;25.00;99.90;;;;;;4902848;29;20420;-86
2022/07/30 11:39:54;;;;;;;4.40;0.40;;;25.00;99.90;;;;;;4930384;29;20387;-83
2022/07/30 11:42:31;;;;;;;2.50;0.30;;;24.70;99.90;;;;;;4917805;29;20049;-85
2022/07/30 11:45:15;;;;;;;0.70;0.20;;;24.60;99.90;;;;;;4923560;29;20039;-89
2022/07/30 11:47:49;;;;;;;1.48;0.20;;;24.80;99.90;;;;;;4933380;29;20103;-85
2022/07/30 11:50:24;;;;;;;4.82;0.20;;;24.90;99.90;;;;;;4936939;29;20059;-88
2022/07/30 11:52:52;;;;;;;1.23;0.30;;;25.00;99.90;;;;;;4929658;29;20039;-85
2022/07/30 11:55:27;;;;;;;1.52;0.30;;;25.00;99.90;;;;;;4914174;29;20159;-86
2022/07/30 11:57:54;;;;;;;1.05;0.30;;;24.80;99.90;;;;;;4944927;29;20032;-85
2022/07/30 12:00:24;;;;;;;2.67;0.22;;;24.60;99.90;;;;;;4911810;29;20035;-86
2022/07/30 12:02:51;;;;;;;1.65;0.25;;;24.50;99.90;;;;;;4926468;29;20029;-87
2022/07/30 12:05:25;;;;;;;1.63;0.20;;;24.70;99.90;;;;;;4933100;29;20043;-86
2022/07/30 12:07:55;;;;;;;2.05;0.30;;;24.90;99.90;;;;;;4953011;28;20045;-85
2022/07/30 12:10:20;;;;;;;1.95;0.30;;;25.20;99.90;;;;;;4974326;28;20077;-86
2022/07/30 12:12:46;;;;;;;0.80;0.20;;;24.70;99.90;;;;;;4974069;28;20042;-87
2022/07/30 12:15:30;;;;;;;2.10;0.37;;;24.50;99.90;;;;;;4995556;28;20176;-83
2022/07/30 12:17:59;;;;;;;1.25;0.30;;;24.20;99.90;;;;;;4998053;28;20053;-85
2022/07/30 12:20:24;;;;;;;1.95;0.30;;;24.40;99.90;;;;;;4974575;28;20050;-87
2022/07/30 12:22:50;;;;;;;1.15;0.30;;;24.40;99.90;;;;;;4975191;28;20138;-87
2022/07/30 12:25:16;;;;;;;1.90;0.30;;;24.40;99.90;;;;;;4990011;28;20042;-88
2022/07/30 12:27:46;;;;;;;1.50;0.20;;;24.40;99.90;;;;;;4977616;28;20097;-84
2022/07/30 12:30:14;;;;;;;2.05;0.25;;;25.00;99.90;;;;;;4993180;28;20077;-85
2022/07/30 12:32:42;;;;;;;0.90;0.30;;;24.80;99.90;;;;;;4989987;28;20468;-91
2022/07/30 12:35:09;;;;;;;2.30;0.30;;;25.10;99.90;;;;;;4974918;28;20112;-84
2022/07/30 12:37:36;;;;;;;2.63;0.20;;;25.30;99.90;;;;;;4971303;28;20093;-84
2022/07/30 12:40:12;;;;;;;5.00;0.40;;;25.60;99.90;;;;;;5003781;28;20049;-83
2022/07/30 12:42:52;;;;;;;1.50;0.20;;;25.10;99.90;;;;;;4987177;28;20034;-93
2022/07/30 12:45:31;;;;;;;1.60;0.40;;;25.30;99.90;;;;;;4986042;28;20038;-88
2022/07/30 12:47:58;;;;;;;1.30;0.20;;;25.50;99.90;;;;;;4986717;28;20499;-82
2022/07/30 12:50:25;;;;;;;2.70;0.45;;;25.50;99.90;;;;;;4980812;28;20114;-86
2022/07/30 12:52:54;;;;;;;2.33;0.30;;;25.30;99.90;;;;;;4973997;28;20033;-87
2022/07/30 12:55:30;;;;;;;1.25;0.20;;;25.40;99.90;;;;;;4983491;28;20123;-84
2022/07/30 12:58:02;;;;;;;1.65;0.30;;;25.60;99.90;;;;;;4983760;28;20611;-85
2022/07/30 13:00:31;;;;;;;2.50;0.30;;;25.60;99.90;;;;;;4973000;28;20038;-93
2022/07/30 13:02:57;;;;;;;0.52;0.20;;;26.00;99.90;;;;;;4990793;28;20042;-83
2022/07/30 13:05:46;;;;;;;1.75;0.30;;;25.60;99.90;;;;;;4973927;28;20064;-85
2022/07/30 13:08:12;;;;;;;1.38;0.30;;;25.60;99.90;;;;;;4964339;28;20058;-85
2022/07/30 13:10:38;;;;;;;1.13;0.20;;;25.60;99.90;;;;;;4975480;28;20034;-91
2022/07/30 13:13:05;;;;;;;1.25;0.20;;;25.90;99.90;;;;;;4971346;28;20038;-86